createdAt,value
2018-08-28T00:01:04.245Z,11.37
2018-08-28T00:04:08.469Z,14.23
2018-08-28T00:07:12.681Z,12.47
2018-08-28T00:10:16.908Z,12.97
2018-08-28T00:13:21.162Z,11.20
2018-08-28T00:16:25.381Z,13.03
2018-08-28T00:19:29.617Z,12.60
2018-08-28T00:22:33.828Z,12.47
2018-08-28T00:25:38.066Z,13.23
2018-08-28T00:28:42.290Z,17.10
2018-08-28T00:31:46.519Z,10.03
2018-08-28T00:34:50.741Z,16.10
2018-08-28T00:37:54.945Z,12.53
2018-08-28T00:40:59.245Z,12.57
2018-08-28T00:44:03.518Z,7.37
2018-08-28T00:47:07.793Z,11.40
2018-08-28T00:50:12.048Z,14.00
2018-08-28T00:53:16.282Z,9.57
2018-08-28T00:56:20.508Z,12.33
2018-08-28T00:59:24.741Z,9.10
2018-08-28T01:02:28.969Z,14.80
2018-08-28T01:05:33.177Z,10.23
2018-08-28T01:08:37.415Z,13.47
2018-08-28T01:11:41.637Z,7.97
2018-08-28T01:14:45.896Z,8.63
2018-08-28T01:17:50.128Z,10.17
2018-08-28T01:20:54.331Z,9.60
2018-08-28T01:23:58.560Z,11.60
2018-08-28T01:27:02.818Z,9.23
2018-08-28T01:30:07.093Z,7.80
2018-08-28T01:33:11.354Z,15.03
2018-08-28T01:36:15.556Z,9.87
2018-08-28T01:39:19.765Z,6.10
2018-08-28T01:42:25.073Z,10.87
2018-08-28T01:45:29.377Z,12.20
2018-08-28T01:48:33.605Z,11.77
2018-08-28T01:51:37.812Z,12.43
2018-08-28T01:54:42.061Z,10.17
2018-08-28T01:57:46.295Z,12.37
2018-08-28T02:00:50.543Z,13.90
2018-08-28T02:03:54.777Z,12.53
2018-08-28T02:06:59.046Z,12.20
2018-08-28T02:10:03.317Z,9.37
2018-08-28T02:13:07.569Z,11.93
2018-08-28T02:16:11.782Z,12.90
2018-08-28T02:19:16.001Z,9.90
2018-08-28T02:22:20.233Z,11.03
2018-08-28T02:25:24.441Z,12.80
2018-08-28T02:28:28.681Z,6.40
2018-08-28T02:31:32.896Z,7.63
2018-08-28T02:34:37.145Z,10.97
2018-08-28T02:37:41.369Z,10.43
2018-08-28T02:40:45.589Z,12.07
2018-08-28T02:43:49.808Z,11.07
2018-08-28T02:46:54.049Z,10.23
2018-08-28T02:49:58.246Z,11.40
2018-08-28T02:53:02.496Z,10.90
2018-08-28T02:56:06.776Z,9.00
2018-08-28T02:59:11.024Z,14.57
2018-08-28T03:02:15.265Z,5.73
2018-08-28T03:05:19.513Z,9.47
2018-08-28T03:08:23.772Z,11.03
2018-08-28T03:11:28.013Z,8.73
2018-08-28T03:14:32.270Z,9.87
2018-08-28T03:17:36.501Z,22.80
2018-08-28T03:20:40.732Z,8.00
2018-08-28T03:23:44.961Z,8.63
2018-08-28T03:26:49.169Z,9.43
2018-08-28T03:29:53.406Z,10.23
2018-08-28T03:32:57.672Z,8.63
2018-08-28T03:36:01.912Z,8.40
2018-08-28T03:39:06.938Z,6.57
2018-08-28T03:42:11.185Z,9.20
2018-08-28T03:45:15.441Z,10.37
2018-08-28T03:48:19.665Z,11.60
2018-08-28T03:51:23.992Z,11.43
2018-08-28T03:54:28.290Z,12.67
2018-08-28T03:57:32.489Z,7.10
2018-08-28T04:00:36.726Z,13.77
2018-08-28T04:03:40.966Z,16.47
2018-08-28T04:06:45.196Z,13.83
2018-08-28T04:09:49.412Z,7.63
2018-08-28T04:12:53.630Z,7.60
2018-08-28T04:15:58.041Z,7.23
2018-08-28T04:19:02.284Z,7.10
2018-08-28T04:22:06.497Z,10.77
2018-08-28T04:25:10.721Z,12.37
2018-08-28T04:28:14.985Z,10.10
2018-08-28T04:31:19.208Z,15.33
2018-08-28T04:34:23.419Z,8.47
2018-08-28T04:37:27.632Z,7.70
2018-08-28T04:40:31.849Z,8.73
2018-08-28T04:43:36.102Z,7.67
2018-08-28T04:46:40.322Z,6.40
2018-08-28T04:49:44.528Z,13.37
2018-08-28T04:52:48.745Z,12.60
2018-08-28T04:55:53.011Z,7.03
2018-08-28T04:58:57.266Z,9.30
2018-08-28T05:02:01.485Z,7.63
2018-08-28T05:05:09.077Z,10.70
2018-08-28T05:08:13.277Z,6.27
2018-08-28T05:11:17.501Z,9.03
2018-08-28T05:14:21.711Z,9.73
2018-08-28T05:17:25.912Z,15.23
2018-08-28T05:20:30.134Z,14.83
2018-08-28T05:23:34.359Z,10.83
2018-08-28T05:26:38.658Z,12.30
2018-08-28T05:29:42.958Z,13.13
2018-08-28T05:32:47.097Z,9.73
2018-08-28T05:35:51.296Z,10.10
2018-08-28T05:38:55.537Z,14.23
2018-08-28T05:41:59.729Z,10.90
2018-08-28T05:45:03.933Z,12.70
2018-08-28T05:48:08.624Z,7.93
2018-08-28T05:51:12.853Z,14.70
2018-08-28T05:54:17.048Z,13.23
2018-08-28T05:57:21.297Z,10.97
2018-08-28T06:00:25.525Z,14.50
2018-08-28T06:03:29.773Z,8.20
2018-08-28T06:06:33.962Z,11.57
2018-08-28T06:09:38.219Z,15.33
2018-08-28T06:12:42.456Z,17.63
2018-08-28T06:15:46.673Z,13.33
2018-08-28T06:18:50.891Z,11.90
2018-08-28T06:21:55.086Z,19.87
2018-08-28T06:24:59.285Z,10.20
2018-08-28T06:28:03.608Z,13.97
2018-08-28T06:31:07.821Z,9.37
2018-08-28T06:34:12.052Z,10.17
2018-08-28T06:37:16.324Z,14.50
2018-08-28T06:40:20.540Z,14.27
2018-08-28T06:43:24.784Z,11.33
2018-08-28T06:46:28.992Z,11.10
2018-08-28T06:49:33.252Z,12.60
2018-08-28T06:52:37.600Z,14.77
2018-08-28T06:55:41.813Z,11.70
2018-08-28T06:58:46.021Z,13.10
2018-08-28T07:01:50.233Z,6.80
2018-08-28T07:04:54.453Z,15.00
2018-08-28T07:07:58.726Z,15.40
2018-08-28T07:11:02.924Z,7.37
2018-08-28T07:14:07.119Z,8.83
2018-08-28T07:17:11.357Z,9.20
2018-08-28T07:20:15.584Z,7.33
2018-08-28T07:23:19.826Z,8.23
2018-08-28T07:26:24.040Z,8.60
2018-08-28T07:29:28.417Z,8.20
2018-08-28T07:32:32.665Z,8.53
2018-08-28T07:35:36.889Z,7.73
2018-08-28T07:38:41.108Z,6.40
2018-08-28T07:41:45.413Z,8.33
2018-08-28T07:44:49.709Z,7.33
2018-08-28T07:47:53.854Z,5.80
2018-08-28T07:50:58.067Z,7.10
2018-08-28T07:54:02.297Z,6.00
2018-08-28T07:57:06.524Z,6.90
2018-08-28T08:00:10.737Z,8.70
2018-08-28T08:03:18.328Z,4.43
2018-08-28T08:06:22.541Z,5.47
2018-08-28T08:09:26.753Z,9.67
2018-08-28T08:12:30.957Z,7.33
2018-08-28T08:15:35.197Z,10.67
2018-08-28T08:18:39.416Z,5.90
2018-08-28T08:21:43.651Z,5.47
2018-08-28T08:24:47.874Z,6.67
2018-08-28T08:27:52.144Z,5.83
2018-08-28T08:30:56.345Z,8.00
2018-08-28T08:34:00.602Z,5.83
2018-08-28T08:37:04.890Z,9.00
2018-08-28T08:40:09.098Z,5.20
2018-08-28T08:43:13.353Z,7.60
2018-08-28T08:46:17.562Z,4.37
2018-08-28T08:49:21.797Z,5.70
2018-08-28T08:52:25.977Z,3.23
2018-08-28T08:55:30.206Z,7.20
2018-08-28T08:58:34.413Z,11.77
2018-08-28T09:01:38.729Z,6.30
2018-08-28T09:04:43.015Z,6.70
2018-08-28T09:07:47.338Z,6.13
2018-08-28T09:10:51.585Z,3.70
2018-08-28T09:13:55.853Z,6.60
2018-08-28T09:17:00.098Z,4.73
2018-08-28T09:20:04.385Z,5.50
2018-08-28T09:23:08.635Z,4.17
2018-08-28T09:26:12.853Z,8.47
2018-08-28T09:29:17.116Z,3.10
2018-08-28T09:32:21.461Z,5.57
2018-08-28T09:35:25.706Z,8.17
2018-08-28T09:38:30.139Z,6.17
2018-08-28T09:41:34.310Z,5.63
2018-08-28T09:44:38.513Z,5.97
2018-08-28T09:47:42.743Z,8.13
2018-08-28T09:50:47.077Z,7.83
2018-08-28T09:53:51.243Z,6.03
2018-08-28T09:56:55.678Z,6.87
2018-08-28T10:00:00.011Z,8.73
2018-08-28T10:03:04.244Z,2.87
2018-08-28T10:06:08.517Z,4.70
2018-08-28T10:09:17.813Z,4.80
2018-08-28T10:12:22.045Z,3.93
2018-08-28T10:15:26.319Z,7.00
2018-08-28T10:18:30.580Z,6.57
2018-08-28T10:21:34.869Z,4.87
2018-08-28T10:24:39.105Z,5.50
2018-08-28T10:27:43.346Z,2.80
2018-08-28T10:30:47.622Z,5.37
2018-08-28T10:33:51.961Z,5.00
2018-08-28T10:36:56.181Z,2.97
2018-08-28T10:40:00.493Z,7.10
2018-08-28T10:43:04.885Z,6.37
2018-08-28T10:46:09.246Z,5.70
2018-08-28T10:49:13.498Z,2.97
2018-08-28T10:52:17.753Z,5.57
2018-08-28T10:55:22.015Z,4.50
2018-08-28T10:58:26.412Z,5.20
2018-08-28T11:01:30.680Z,3.80
2018-08-28T11:04:34.978Z,7.73
2018-08-28T11:07:39.234Z,2.83
2018-08-28T11:10:43.449Z,4.57
2018-08-28T11:13:47.671Z,4.20
2018-08-28T11:16:51.913Z,7.23
2018-08-28T11:19:56.841Z,5.70
2018-08-28T11:23:01.179Z,4.87
2018-08-28T11:26:05.330Z,3.07
2018-08-28T11:29:09.562Z,6.77
2018-08-28T11:32:13.762Z,2.90
2018-08-28T11:35:17.987Z,4.93
2018-08-28T11:38:22.195Z,3.47
2018-08-28T11:41:26.397Z,6.20
2018-08-28T11:44:30.618Z,5.67
2018-08-28T11:47:34.834Z,5.07
2018-08-28T11:50:39.049Z,5.50
2018-08-28T11:53:43.261Z,5.07
2018-08-28T11:56:47.443Z,7.07
2018-08-28T11:59:51.665Z,4.50
2018-08-28T12:02:55.897Z,5.10
2018-08-28T12:06:00.122Z,5.33
2018-08-28T12:09:05.655Z,4.87
2018-08-28T12:12:09.877Z,8.47
2018-08-28T12:15:14.124Z,5.30
2018-08-28T12:18:18.325Z,5.63
2018-08-28T12:21:22.539Z,8.23
2018-08-28T12:24:26.769Z,4.40
2018-08-28T12:27:31.012Z,7.60
2018-08-28T12:30:35.245Z,5.50
2018-08-28T12:33:39.441Z,4.73
2018-08-28T12:36:43.693Z,4.17
2018-08-28T12:39:47.889Z,8.43
2018-08-28T12:42:52.113Z,7.07
2018-08-28T12:45:56.312Z,6.03
2018-08-28T12:49:00.537Z,5.57
2018-08-28T12:52:04.770Z,5.90
2018-08-28T12:55:09.088Z,6.13
2018-08-28T12:58:13.217Z,5.10
2018-08-28T13:01:17.468Z,6.87
2018-08-28T13:04:21.674Z,5.30
2018-08-28T13:07:26.076Z,6.80
2018-08-28T13:10:30.121Z,5.17
2018-08-28T13:13:34.403Z,3.80
2018-08-28T13:16:38.624Z,3.47
2018-08-28T13:19:42.853Z,4.60
2018-08-28T13:22:47.048Z,6.20
2018-08-28T13:25:51.268Z,4.43
2018-08-28T13:28:55.477Z,3.87
2018-08-28T13:31:59.706Z,5.07
2018-08-28T13:35:03.929Z,4.80
2018-08-28T13:38:08.173Z,6.67
2018-08-28T13:41:12.409Z,6.83
2018-08-28T13:44:16.600Z,5.30
2018-08-28T13:47:20.838Z,3.07
2018-08-28T13:50:25.053Z,3.83
2018-08-28T13:53:29.263Z,3.57
2018-08-28T13:56:33.505Z,8.20
2018-08-28T13:59:37.745Z,4.90
2018-08-28T14:02:41.982Z,4.10
2018-08-28T14:05:46.231Z,5.27
2018-08-28T14:08:50.438Z,5.67
2018-08-28T14:11:54.634Z,4.73
2018-08-28T14:14:58.956Z,5.10
2018-08-28T14:18:03.057Z,5.13
2018-08-28T14:21:07.284Z,4.00
2018-08-28T14:24:11.554Z,6.03
2018-08-28T14:27:15.754Z,4.60
2018-08-28T14:30:19.953Z,4.33
2018-08-28T14:33:24.313Z,4.10
2018-08-28T14:36:28.615Z,5.90
2018-08-28T14:39:32.870Z,3.67
2018-08-28T14:42:37.123Z,4.43
2018-08-28T14:45:41.513Z,5.77
2018-08-28T14:48:45.746Z,5.00
2018-08-28T14:51:49.961Z,4.63
2018-08-28T14:54:54.166Z,4.10
2018-08-28T14:57:58.397Z,10.10
2018-08-28T15:01:02.669Z,4.43
2018-08-28T15:04:06.903Z,4.43
2018-08-28T15:07:11.165Z,4.00
2018-08-28T15:10:15.325Z,5.50
2018-08-28T15:13:19.521Z,3.57
2018-08-28T15:16:23.752Z,3.53
2018-08-28T15:19:27.959Z,4.43
2018-08-28T15:22:32.333Z,2.93
2018-08-28T15:25:36.521Z,6.20
2018-08-28T15:28:40.708Z,2.80
2018-08-28T15:31:44.916Z,2.90
2018-08-28T15:34:49.113Z,6.60
2018-08-28T15:37:53.302Z,2.97
2018-08-28T15:40:57.717Z,4.60
2018-08-28T15:44:01.969Z,7.47
2018-08-28T15:47:06.562Z,4.07
2018-08-28T15:50:10.782Z,4.90
2018-08-28T15:53:14.996Z,5.33
2018-08-28T15:56:19.210Z,6.47
2018-08-28T15:59:23.433Z,7.53
2018-08-28T16:02:27.653Z,18.43
2018-08-28T16:05:31.852Z,5.63
2018-08-28T16:08:36.091Z,7.97
2018-08-28T16:11:40.290Z,5.87
2018-08-28T16:14:44.498Z,6.00
2018-08-28T16:17:48.728Z,5.33
2018-08-28T16:20:52.920Z,5.63
2018-08-28T16:23:57.158Z,9.63
2018-08-28T16:27:01.350Z,5.87
2018-08-28T16:30:05.788Z,4.33
2018-08-28T16:33:10.025Z,5.33
2018-08-28T16:36:14.279Z,5.17
2018-08-28T16:39:18.517Z,5.83
2018-08-28T16:42:22.726Z,4.23
2018-08-28T16:45:26.937Z,5.03
2018-08-28T16:48:31.256Z,6.73
2018-08-28T16:51:35.399Z,4.13
2018-08-28T16:54:39.607Z,5.37
2018-08-28T16:57:43.777Z,4.40
2018-08-28T17:00:47.997Z,3.47
2018-08-28T17:03:52.217Z,3.83
2018-08-28T17:06:56.413Z,5.13
2018-08-28T17:10:00.620Z,4.90
2018-08-28T17:13:04.863Z,3.67
2018-08-28T17:16:09.094Z,3.50
2018-08-28T17:19:13.327Z,7.53
2018-08-28T17:22:17.564Z,5.97
2018-08-28T17:25:21.965Z,4.97
2018-08-28T17:28:26.233Z,3.30
2018-08-28T17:31:30.416Z,3.90
2018-08-28T17:34:34.663Z,7.57
2018-08-28T17:37:38.861Z,6.03
2018-08-28T17:40:43.045Z,3.97
2018-08-28T17:43:47.276Z,6.30
2018-08-28T17:46:51.458Z,6.67
2018-08-28T17:49:55.688Z,5.87
2018-08-28T17:52:59.971Z,4.30
2018-08-28T17:56:04.216Z,3.70
2018-08-28T17:59:08.410Z,6.87
2018-08-28T18:02:12.625Z,3.73
2018-08-28T18:05:16.830Z,4.63
2018-08-28T18:08:21.033Z,4.67
2018-08-28T18:11:25.220Z,3.20
2018-08-28T18:14:29.429Z,5.07
2018-08-28T18:17:33.654Z,6.07
2018-08-28T18:20:37.831Z,6.10
2018-08-28T18:23:42.085Z,4.30
2018-08-28T18:26:46.290Z,6.00
2018-08-28T18:29:50.530Z,3.23
2018-08-28T18:32:54.729Z,4.13
2018-08-28T18:35:59.002Z,1.77
2018-08-28T18:39:03.217Z,3.57
2018-08-28T18:42:07.490Z,5.03
2018-08-28T18:45:11.697Z,3.13
2018-08-28T18:48:15.923Z,4.83
2018-08-28T18:51:20.113Z,3.83
2018-08-28T18:54:24.315Z,5.83
2018-08-28T18:57:28.508Z,4.83
2018-08-28T19:00:32.758Z,4.47
2018-08-28T19:03:36.954Z,6.90
2018-08-28T19:06:41.190Z,8.33
2018-08-28T19:09:45.376Z,7.20
2018-08-28T19:12:49.596Z,5.87
2018-08-28T19:15:54.049Z,5.10
2018-08-28T19:18:58.268Z,4.70
2018-08-28T19:22:02.491Z,5.03
2018-08-28T19:25:06.717Z,2.90
2018-08-28T19:28:10.961Z,4.17
2018-08-28T19:31:15.173Z,7.60
2018-08-28T19:34:19.399Z,5.90
2018-08-28T19:37:23.965Z,10.57
2018-08-28T19:40:28.181Z,5.17
2018-08-28T19:43:32.419Z,4.27
2018-08-28T19:46:36.638Z,6.53
2018-08-28T19:49:40.850Z,4.90
2018-08-28T19:52:45.040Z,6.33
2018-08-28T19:55:49.264Z,4.23
2018-08-28T19:58:53.458Z,3.47
2018-08-28T20:01:57.669Z,3.47
2018-08-28T20:05:01.914Z,5.60
2018-08-28T20:08:06.221Z,6.93
2018-08-28T20:11:10.437Z,6.67
2018-08-28T20:14:14.620Z,5.83
2018-08-28T20:17:18.852Z,3.67
2018-08-28T20:20:23.054Z,4.80
2018-08-28T20:23:27.278Z,5.93
2018-08-28T20:26:31.521Z,7.73
2018-08-28T20:29:35.755Z,6.60
2018-08-28T20:32:39.950Z,4.77
2018-08-28T20:35:44.152Z,8.40
2018-08-28T20:38:48.328Z,7.30
2018-08-28T20:41:52.609Z,9.87
2018-08-28T20:44:56.779Z,7.57
2018-08-28T20:48:00.991Z,6.63
2018-08-28T20:51:05.541Z,8.93
2018-08-28T20:54:09.829Z,5.87
2018-08-28T20:57:14.012Z,5.17
2018-08-28T21:00:18.246Z,7.47
2018-08-28T21:03:22.493Z,7.77
2018-08-28T21:06:26.771Z,8.90
2018-08-28T21:09:30.953Z,6.83
2018-08-28T21:12:35.223Z,4.30
2018-08-28T21:15:39.377Z,4.17
2018-08-28T21:18:43.601Z,6.23
2018-08-28T21:21:47.809Z,5.27
2018-08-28T21:24:52.005Z,9.30
2018-08-28T21:27:56.240Z,5.13
2018-08-28T21:31:00.436Z,7.50
2018-08-28T21:34:04.623Z,4.40
2018-08-28T21:37:08.817Z,6.33
2018-08-28T21:40:13.062Z,6.67
2018-08-28T21:43:17.280Z,9.00
2018-08-28T21:46:21.505Z,4.67
2018-08-28T21:49:25.701Z,8.17
2018-08-28T21:52:29.926Z,6.47
2018-08-28T21:55:34.121Z,6.30
2018-08-28T21:58:38.360Z,6.60
2018-08-28T22:01:42.577Z,9.00
2018-08-28T22:04:46.777Z,7.63
2018-08-28T22:07:55.108Z,5.80
2018-08-28T22:10:59.306Z,8.43
2018-08-28T22:14:03.588Z,8.20
2018-08-28T22:17:07.826Z,12.00
2018-08-28T22:20:12.045Z,8.90
2018-08-28T22:23:16.254Z,6.10
2018-08-28T22:26:20.474Z,4.07
2018-08-28T22:29:24.676Z,5.43
2018-08-28T22:32:28.897Z,6.03
2018-08-28T22:35:33.121Z,5.73
2018-08-28T22:38:37.300Z,4.57
2018-08-28T22:41:41.533Z,6.10
2018-08-28T22:44:45.730Z,6.67
2018-08-28T22:47:49.941Z,10.17
2018-08-28T22:50:54.137Z,5.33
2018-08-28T22:53:58.418Z,8.27
2018-08-28T22:57:02.613Z,5.67
2018-08-28T23:00:07.473Z,4.87
2018-08-28T23:03:11.652Z,7.57
2018-08-28T23:06:15.857Z,6.80
2018-08-28T23:09:20.057Z,8.37
2018-08-28T23:12:24.308Z,5.27
2018-08-28T23:15:28.513Z,4.00
2018-08-28T23:18:32.765Z,4.77
2018-08-28T23:21:36.950Z,4.50
2018-08-28T23:24:41.141Z,3.93
2018-08-28T23:27:45.350Z,5.07
2018-08-28T23:30:49.588Z,4.03
2018-08-28T23:33:53.770Z,5.83
2018-08-28T23:36:57.968Z,3.90
2018-08-28T23:40:02.166Z,6.37
2018-08-28T23:43:07.424Z,5.13
2018-08-28T23:46:11.640Z,5.80
2018-08-28T23:49:15.829Z,5.00
2018-08-28T23:52:20.037Z,5.33
2018-08-28T23:55:24.325Z,6.10
2018-08-28T23:58:28.541Z,6.20
